Time;durP1;ratioP1;P1;durP2;ratioP2;P2;SDS_P1;SDS_P2;PMS_P1;PMS_P2;Temp;Humidity;BMP_temperature;BMP_pressure;BME280_temperature;BME280_humidity;BME280_pressure;Samples;Min_cycle;Max_cycle;Signal;HPM_P1;HPM_P2
2023/11/11 00:02:10;;;;;;;;;;;;;;;8.01;100.00;99950.63;5053923;28;19956;-41
2023/11/11 00:04:35;;;;;;;;;;;;;;;8.07;100.00;99938.31;5047659;28;20001;-40
2023/11/11 00:07:00;;;;;;;;;;;;;;;8.12;100.00;99946.63;5045689;28;19979;-42
2023/11/11 00:09:25;;;;;;;;;;;;;;;8.12;100.00;99950.13;5034046;28;19952;-41
2023/11/11 00:11:51;;;;;;;;;;;;;;;8.14;100.00;99936.53;5043829;28;20290;-41
2023/11/11 00:14:16;;;;;;;;;;;;;;;8.16;100.00;99941.69;5043950;28;19917;-41
2023/11/11 00:16:42;;;;;;;;;;;;;;;8.18;100.00;99943.19;5052016;28;19917;-41
2023/11/11 00:19:07;;;;;;;;;;;;;;;8.24;100.00;99946.94;5053226;28;19917;-41
2023/11/11 00:21:41;;;;;;;;;;;;;;;8.27;100.00;99946.59;5038474;28;19913;-38
2023/11/11 00:24:07;;;;;;;;;;;;;;;8.24;100.00;99965.72;5040438;28;19917;-39
2023/11/11 00:26:33;;;;;;;;;;;;;;;8.19;100.00;99958.25;5034187;28;20671;-41
2023/11/11 00:28:58;;;;;;;;;;;;;;;8.12;100.00;99946.63;5034020;28;19920;-39
2023/11/11 00:31:23;;;;;;;;;;;;;;;8.06;100.00;99953.56;5034304;28;20419;-41
2023/11/11 00:33:49;;;;;;;;;;;;;;;8.03;100.00;99937.00;5043481;28;19924;-40
2023/11/11 00:36:16;;;;;;;;;;;;;;;8.00;100.00;99951.63;5053689;28;19917;-41
2023/11/11 00:38:42;;;;;;;;;;;;;;;8.00;100.00;99959.66;5052803;28;19919;-40
2023/11/11 00:41:07;;;;;;;;;;;;;;;8.00;100.00;99977.59;5054101;28;20011;-40
2023/11/11 00:43:33;;;;;;;;;;;;;;;7.86;100.00;99980.09;5050166;28;20315;-43
2023/11/11 00:45:58;;;;;;;;;;;;;;;7.51;100.00;99984.34;5034935;28;19917;-44
2023/11/11 00:48:24;;;;;;;;;;;;;;;7.29;100.00;99991.38;5033922;28;19917;-44
2023/11/11 00:50:50;;;;;;;;;;;;;;;7.14;100.00;99999.41;5047907;28;20334;-44
2023/11/11 00:53:15;;;;;;;;;;;;;;;7.09;100.00;99999.09;5037065;28;19917;-44
2023/11/11 00:55:40;;;;;;;;;;;;;;;7.06;100.00;100004.81;5035390;28;19920;-44
2023/11/11 00:58:05;;;;;;;;;;;;;;;7.03;100.00;100005.19;5053196;28;19916;-43
2023/11/11 01:00:31;;;;;;;;;;;;;;;6.99;100.00;100003.88;5053213;28;19913;-44
2023/11/11 01:02:58;;;;;;;;;;;;;;;6.95;100.00;99997.19;5053206;28;19923;-44
2023/11/11 01:05:23;;;;;;;;;;;;;;;6.93;100.00;99999.25;5052529;28;20367;-44
2023/11/11 01:07:49;;;;;;;;;;;;;;;6.87;100.00;100003.44;5033429;28;19924;-44
2023/11/11 01:10:14;;;;;;;;;;;;;;;6.82;100.00;100000.50;5033269;28;19957;-42
2023/11/11 01:12:39;;;;;;;;;;;;;;;6.78;100.00;99997.31;5033151;28;19956;-45
2023/11/11 01:15:12;;;;;;;;;;;;;;;6.76;100.00;99999.34;5035868;28;19925;-41
2023/11/11 01:17:37;;;;;;;;;;;;;;;6.80;100.00;100010.53;5034959;28;19956;-40
2023/11/11 01:20:03;;;;;;;;;;;;;;;6.84;100.00;100013.66;5043326;28;20002;-39
2023/11/11 01:22:29;;;;;;;;;;;;;;;6.89;100.00;100019.31;5051466;28;19916;-41
2023/11/11 01:24:55;;;;;;;;;;;;;;;6.97;100.00;100021.94;5051990;28;19952;-41
2023/11/11 01:27:20;;;;;;;;;;;;;;;7.03;100.00;100018.56;5052307;28;20018;-41
2023/11/11 01:29:45;;;;;;;;;;;;;;;7.12;100.00;100014.78;5040859;28;19916;-39
2023/11/11 01:32:10;;;;;;;;;;;;;;;7.17;100.00;100007.06;5052455;28;20348;-40
2023/11/11 01:34:36;;;;;;;;;;;;;;;7.24;100.00;100002.66;5052550;28;19943;-40
2023/11/11 01:37:08;;;;;;;;;;;;;;;7.32;100.00;100016.97;5052340;28;19922;-41
2023/11/11 01:39:34;;;;;;;;;;;;;;;7.37;100.00;100020.78;5047881;28;20011;-38
2023/11/11 01:41:59;;;;;;;;;;;;;;;7.43;100.00;100027.25;5032926;28;20004;-39
2023/11/11 01:44:24;;;;;;;;;;;;;;;7.53;100.00;100011.78;5037837;28;19920;-39
2023/11/11 01:46:50;;;;;;;;;;;;;;;7.58;100.00;99995.13;5051369;28;19917;-40
2023/11/11 01:49:15;;;;;;;;;;;;;;;7.59;100.00;100000.31;5046470;28;19944;-40
2023/11/11 01:51:41;;;;;;;;;;;;;;;7.59;100.00;99989.59;5052377;28;19974;-39
2023/11/11 01:54:06;;;;;;;;;;;;;;;7.59;100.00;99994.13;5038646;28;19917;-37
2023/11/11 01:56:31;;;;;;;;;;;;;;;7.50;100.00;99984.50;5043786;28;19923;-39
2023/11/11 01:58:57;;;;;;;;;;;;;;;7.52;100.00;99995.88;5052317;28;19959;-38
2023/11/11 02:01:23;;;;;;;;;;;;;;;7.58;100.00;99987.09;5052172;28;19970;-38
2023/11/11 02:03:48;;;;;;;;;;;;;;;7.60;100.00;99988.56;5034685;28;19924;-38
2023/11/11 02:06:14;;;;;;;;;;;;;;;7.61;100.00;99997.44;5029486;28;19917;-39
2023/11/11 02:08:39;;;;;;;;;;;;;;;7.60;100.00;100001.97;5032186;28;19917;-40
2023/11/11 02:11:05;;;;;;;;;;;;;;;7.59;100.00;100011.03;5015405;28;19943;-39
2023/11/11 02:13:34;;;;;;;;;;;;;;;7.56;100.00;100014.06;5032323;28;19939;-39
2023/11/11 02:15:59;;;;;;;;;;;;;;;7.60;100.00;100023.38;5035078;28;20024;-37
2023/11/11 02:18:25;;;;;;;;;;;;;;;7.64;100.00;100024.69;5051710;28;19948;-39
2023/11/11 02:20:50;;;;;;;;;;;;;;;7.67;100.00;100024.31;5041357;28;19919;-41
2023/11/11 02:23:16;;;;;;;;;;;;;;;7.72;100.00;100025.63;5032212;28;19932;-40
2023/11/11 02:25:41;;;;;;;;;;;;;;;7.74;100.00;100023.59;5040204;28;19913;-44
2023/11/11 02:28:07;;;;;;;;;;;;;;;7.62;100.00;100021.38;5039869;28;20378;-44
2023/11/11 02:30:32;;;;;;;;;;;;;;;7.50;100.00;100032.69;5047680;28;19912;-44
2023/11/11 02:32:57;;;;;;;;;;;;;;;7.42;100.00;100036.28;5051071;28;20344;-43
2023/11/11 02:35:23;;;;;;;;;;;;;;;7.37;100.00;100044.03;5051415;28;20050;-42
2023/11/11 02:37:48;;;;;;;;;;;;;;;7.36;100.00;100053.06;5034009;28;19952;-43
2023/11/11 02:40:15;;;;;;;;;;;;;;;7.35;100.00;100049.56;5061263;28;19917;-42
2023/11/11 02:42:40;;;;;;;;;;;;;;;7.36;100.00;100047.72;5051547;28;19917;-43
2023/11/11 02:45:06;;;;;;;;;;;;;;;7.24;100.00;100056.19;5051617;28;19923;-42
2023/11/11 02:47:31;;;;;;;;;;;;;;;7.13;100.00;100064.63;5051229;28;20283;-44
2023/11/11 02:49:57;;;;;;;;;;;;;;;7.08;100.00;100050.94;5047604;28;19923;-44
2023/11/11 02:52:22;;;;;;;;;;;;;;;7.06;100.00;100055.66;5050565;28;19943;-43
2023/11/11 02:54:47;;;;;;;;;;;;;;;7.07;100.00;100060.00;5047993;28;20214;-43
2023/11/11 02:57:12;;;;;;;;;;;;;;;7.07;100.00;100062.66;5044656;28;19916;-44
2023/11/11 02:59:39;;;;;;;;;;;;;;;7.10;100.00;100062.31;5045900;28;19923;-43
2023/11/11 03:02:05;;;;;;;;;;;;;;;7.13;100.00;100059.25;5033950;28;19921;-43
2023/11/11 03:04:30;;;;;;;;;;;;;;;7.17;100.00;100060.59;5020508;28;19916;-44
2023/11/11 03:06:55;;;;;;;;;;;;;;;7.18;100.00;100058.72;5054028;28;19921;-44
2023/11/11 03:09:20;;;;;;;;;;;;;;;7.15;100.00;100062.59;5055336;28;19924;-44
2023/11/11 03:11:46;;;;;;;;;;;;;;;7.11;100.00;100066.66;5054363;28;19924;-44
2023/11/11 03:14:11;;;;;;;;;;;;;;;7.10;100.00;100062.31;5054864;28;20011;-44
2023/11/11 03:16:37;;;;;;;;;;;;;;;7.14;100.00;100082.34;5049200;28;19916;-43
2023/11/11 03:19:03;;;;;;;;;;;;;;;7.19;100.00;100071.13;5054694;28;19913;-43
2023/11/11 03:21:28;;;;;;;;;;;;;;;7.18;100.00;100082.81;5050842;28;19921;-41
2023/11/11 03:23:53;;;;;;;;;;;;;;;7.12;100.00;100076.34;5035411;28;20410;-41
2023/11/11 03:26:19;;;;;;;;;;;;;;;7.09;100.00;100082.06;5042487;28;20025;-40
2023/11/11 03:28:45;;;;;;;;;;;;;;;7.10;100.00;100081.03;5055052;28;19912;-40
2023/11/11 03:31:10;;;;;;;;;;;;;;;7.10;100.00;100088.22;5054205;28;19928;-38
2023/11/11 03:33:35;;;;;;;;;;;;;;;7.11;100.00;100077.38;5048489;28;19924;-40
2023/11/11 03:36:00;;;;;;;;;;;;;;;7.16;100.00;100085.69;5044039;28;20287;-37
2023/11/11 03:38:25;;;;;;;;;;;;;;;7.21;100.00;100083.31;5045031;28;20252;-38
2023/11/11 03:40:51;;;;;;;;;;;;;;;7.23;100.00;100083.13;5050447;28;20276;-40
2023/11/11 03:43:16;;;;;;;;;;;;;;;7.23;100.00;100083.13;5053468;28;20363;-38
2023/11/11 03:45:41;;;;;;;;;;;;;;;7.25;100.00;100086.47;5054598;28;20434;-39
2023/11/11 03:48:06;;;;;;;;;;;;;;;7.23;100.00;100086.63;5041906;28;19913;-40
2023/11/11 03:50:32;;;;;;;;;;;;;;;7.24;100.00;100088.31;5054207;28;19916;-40
2023/11/11 03:52:57;;;;;;;;;;;;;;;7.23;100.00;100085.78;5048611;28;20003;-37
2023/11/11 03:55:22;;;;;;;;;;;;;;;7.20;100.00;100078.13;5043332;28;20023;-38
2023/11/11 03:57:47;;;;;;;;;;;;;;;7.23;100.00;100080.44;5054111;28;19924;-38
2023/11/11 04:00:17;;;;;;;;;;;;;;;7.23;100.00;100091.97;5053596;28;19917;-40
2023/11/11 04:02:42;;;;;;;;;;;;;;;7.22;100.00;100089.50;5053489;28;19942;-40
2023/11/11 04:05:11;;;;;;;;;;;;;;;7.22;100.00;100087.66;5054156;28;20018;-38
2023/11/11 04:07:36;;;;;;;;;;;;;;;7.25;100.00;100094.47;5054133;28;19919;-39
2023/11/11 04:10:01;;;;;;;;;;;;;;;7.22;100.00;100095.66;5054121;28;19975;-41
2023/11/11 04:12:27;;;;;;;;;;;;;;;7.23;100.00;100097.31;5053225;28;20298;-40
2023/11/11 04:14:52;;;;;;;;;;;;;;;7.22;100.00;100094.84;5053341;28;19920;-38
2023/11/11 04:17:17;;;;;;;;;;;;;;;7.21;100.00;100102.06;5053843;28;20452;-38
2023/11/11 04:19:44;;;;;;;;;;;;;;;7.20;100.00;100102.22;5054206;28;19996;-37
2023/11/11 04:22:10;;;;;;;;;;;;;;;7.19;100.00;100098.72;5047257;28;19963;-40
2023/11/11 04:24:35;;;;;;;;;;;;;;;7.25;100.00;100100.66;5034084;28;19917;-39
2023/11/11 04:27:02;;;;;;;;;;;;;;;7.25;100.00;100103.34;5040193;28;19917;-38
2023/11/11 04:29:27;;;;;;;;;;;;;;;7.22;100.00;100103.69;5053712;28;19986;-39
2023/11/11 04:31:52;;;;;;;;;;;;;;;7.22;100.00;100103.69;5047973;28;20375;-40
2023/11/11 04:34:19;;;;;;;;;;;;;;;7.23;100.00;100108.03;5034151;28;19913;-39
2023/11/11 04:36:44;;;;;;;;;;;;;;;7.28;100.00;100114.72;5033754;28;20000;-37
2023/11/11 04:39:10;;;;;;;;;;;;;;;7.28;100.00;100112.03;5034069;28;20240;-38
2023/11/11 04:41:35;;;;;;;;;;;;;;;7.27;100.00;100113.88;5034521;28;20355;-38
2023/11/11 04:44:01;;;;;;;;;;;;;;;7.31;100.00;100119.69;5033971;28;20356;-39
2023/11/11 04:46:27;;;;;;;;;;;;;;;7.34;100.00;100122.00;5033381;28;19939;-39
2023/11/11 04:48:53;;;;;;;;;;;;;;;7.41;100.00;100122.97;5049965;28;19920;-41
2023/11/11 04:51:18;;;;;;;;;;;;;;;7.40;100.00;100126.69;5035881;28;19912;-40
2023/11/11 04:53:44;;;;;;;;;;;;;;;7.38;100.00;100126.00;5053718;28;19923;-41
2023/11/11 04:56:09;;;;;;;;;;;;;;;7.38;100.00;100131.38;5053796;28;20004;-41
2023/11/11 04:58:38;;;;;;;;;;;;;;;7.44;100.00;100136.81;5053821;28;19948;-40
2023/11/11 05:01:03;;;;;;;;;;;;;;;7.48;100.00;100131.97;5053715;28;20011;-38
2023/11/11 05:03:28;;;;;;;;;;;;;;;7.50;100.00;100132.59;5040939;28;19967;-39
2023/11/11 05:05:54;;;;;;;;;;;;;;;7.51;100.00;100128.91;5032899;28;20368;-39
2023/11/11 05:08:19;;;;;;;;;;;;;;;7.50;100.00;100134.44;5046505;28;20359;-40
2023/11/11 05:10:44;;;;;;;;;;;;;;;7.52;100.00;100138.59;5048857;28;19927;-39
2023/11/11 05:13:09;;;;;;;;;;;;;;;7.53;100.00;100137.63;5045797;28;19931;-40
2023/11/11 05:15:42;;;;;;;;;;;;;;;7.54;100.00;100144.63;5050759;28;20339;-37
2023/11/11 05:18:07;;;;;;;;;;;;;;;7.55;100.00;100140.91;5038970;28;20306;-38
2023/11/11 05:20:32;;;;;;;;;;;;;;;7.61;100.00;100137.53;5050957;28;19923;-38
2023/11/11 05:22:58;;;;;;;;;;;;;;;7.64;100.00;100142.53;5030657;28;19924;-37
2023/11/11 05:25:23;;;;;;;;;;;;;;;7.67;100.00;100152.06;5030819;28;19916;-38
2023/11/11 05:27:51;;;;;;;;;;;;;;;7.67;100.00;100155.56;5036476;28;19920;-41
2023/11/11 05:30:18;;;;;;;;;;;;;;;7.71;100.00;100148.00;5039353;28;20019;-38
2023/11/11 05:32:43;;;;;;;;;;;;;;;7.74;100.00;100154.84;5049976;28;19916;-41
2023/11/11 05:35:09;;;;;;;;;;;;;;;7.75;100.00;100159.19;5027537;28;19917;-42
2023/11/11 05:37:35;;;;;;;;;;;;;;;7.74;100.00;100171.75;5040084;28;19923;-41
2023/11/11 05:40:00;;;;;;;;;;;;;;;7.75;100.00;100159.19;5032829;28;19920;-40
2023/11/11 05:42:25;;;;;;;;;;;;;;;7.75;100.00;100164.56;5024400;28;19927;-39
2023/11/11 05:44:50;;;;;;;;;;;;;;;7.76;100.00;100171.56;5041142;28;19916;-40
2023/11/11 05:47:16;;;;;;;;;;;;;;;7.77;100.00;100174.06;5046073;28;20291;-39
2023/11/11 05:49:43;;;;;;;;;;;;;;;7.78;100.00;100166.88;5012723;28;20279;-39
2023/11/11 05:52:08;;;;;;;;;;;;;;;7.80;100.00;100170.19;5031991;28;20007;-40
2023/11/11 05:54:33;;;;;;;;;;;;;;;7.78;100.00;100166.88;5047809;28;20047;-40
2023/11/11 05:56:59;;;;;;;;;;;;;;;7.77;100.00;100173.25;5035719;28;19921;-38
2023/11/11 05:59:24;;;;;;;;;;;;;;;7.79;100.00;100171.19;5033581;28;19939;-40
2023/11/11 06:01:51;;;;;;;;;;;;;;;7.80;100.00;100162.16;5043291;28;19928;-40
2023/11/11 06:04:16;;;;;;;;;;;;;;;7.78;100.00;100174.91;5036832;28;19916;-42
2023/11/11 06:06:44;;;;;;;;;;;;;;;7.76;100.00;100182.28;5045548;28;19928;-41
2023/11/11 06:09:10;;;;;;;;;;;;;;;7.73;100.00;100177.28;5036779;28;19925;-41
2023/11/11 06:11:45;;;;;;;;;;;;;;;7.66;100.00;100180.69;5048344;28;19936;-40
2023/11/11 06:14:15;;;;;;;;;;;;;;;7.63;100.00;100182.88;5048464;28;19927;-41
2023/11/11 06:16:41;;;;;;;;;;;;;;;7.61;100.00;100191.09;5045267;28;19942;-41
2023/11/11 06:19:07;;;;;;;;;;;;;;;7.61;100.00;100179.53;5040513;28;19912;-41
2023/11/11 06:21:33;;;;;;;;;;;;;;;7.60;100.00;100183.25;5047669;28;19920;-41
2023/11/11 06:23:58;;;;;;;;;;;;;;;7.58;100.00;100195.97;5047818;28;19935;-42
2023/11/11 06:26:23;;;;;;;;;;;;;;;7.58;100.00;100186.13;5051581;28;19928;-39
2023/11/11 06:28:51;;;;;;;;;;;;;;;7.55;100.00;100190.97;5052161;28;19919;-41
2023/11/11 06:31:17;;;;;;;;;;;;;;;7.50;100.00;100202.22;5050119;28;19928;-39
2023/11/11 06:33:42;;;;;;;;;;;;;;;7.48;100.00;100190.88;5049239;28;19921;-38
2023/11/11 06:36:07;;;;;;;;;;;;;;;7.45;100.00;100202.75;5049167;28;19913;-40
2023/11/11 06:38:32;;;;;;;;;;;;;;;7.46;100.00;100204.41;5047798;28;19931;-40
2023/11/11 06:40:58;;;;;;;;;;;;;;;7.46;100.00;100204.41;5049954;28;20441;-39
2023/11/11 06:43:23;;;;;;;;;;;;;;;7.40;100.00;100205.13;5028703;28;20003;-41
2023/11/11 06:45:48;;;;;;;;;;;;;;;7.37;100.00;100204.63;5049580;28;19913;-41
2023/11/11 06:48:16;;;;;;;;;;;;;;;7.36;100.00;100205.66;5049116;28;19916;-41
2023/11/11 06:50:41;;;;;;;;;;;;;;;7.35;100.00;100204.00;5048463;28;19963;-41
2023/11/11 06:53:06;;;;;;;;;;;;;;;7.31;100.00;100210.69;5047686;28;19917;-39
2023/11/11 06:55:33;;;;;;;;;;;;;;;7.30;100.00;100215.22;5048485;28;19921;-40
2023/11/11 06:57:59;;;;;;;;;;;;;;;7.28;100.00;100208.38;5048013;28;19943;-40
2023/11/11 07:00:25;;;;;;;;;;;;;;;7.21;100.00;100213.59;5046581;28;20055;-41
2023/11/11 07:02:54;;;;;;;;;;;;;;;7.19;100.00;100216.47;5047675;28;20348;-40
2023/11/11 07:05:19;;;;;;;;;;;;;;;7.18;100.00;100228.16;5049290;28;19924;-40
2023/11/11 07:07:46;;;;;;;;;;;;;;;7.16;100.00;100230.19;5039473;28;19917;-39
2023/11/11 07:10:12;;;;;;;;;;;;;;;7.14;100.00;100221.50;5049127;28;19917;-41
2023/11/11 07:12:38;;;;;;;;;;;;;;;7.13;100.00;100230.53;5048579;28;20011;-41
2023/11/11 07:15:04;;;;;;;;;;;;;;;7.15;100.00;100233.88;5048852;28;20051;-40
2023/11/11 07:17:29;;;;;;;;;;;;;;;7.15;100.00;100243.75;5038307;28;20343;-39
2023/11/11 07:19:56;;;;;;;;;;;;;;;7.11;100.00;100234.38;5046978;28;19932;-40
2023/11/11 07:22:22;;;;;;;;;;;;;;;7.09;100.00;100244.44;5044099;28;19912;-41
2023/11/11 07:24:47;;;;;;;;;;;;;;;7.08;100.00;100246.25;5044848;28;19970;-40
2023/11/11 07:27:15;;;;;;;;;;;;;;;7.11;100.00;100259.31;5040447;28;20393;-41
2023/11/11 07:29:40;;;;;;;;;;;;;;;7.18;100.00;100262.94;5031398;28;19913;-41
2023/11/11 07:32:05;;;;;;;;;;;;;;;7.21;100.00;100269.78;5050889;28;20301;-39
2023/11/11 07:34:31;;;;;;;;;;;;;;;7.21;100.00;100265.31;5050748;28;20301;-40
2023/11/11 07:36:56;;;;;;;;;;;;;;;7.31;100.00;100269.59;5047058;28;19931;-40
2023/11/11 07:39:22;;;;;;;;;;;;;;;7.48;100.00;100276.53;5051660;28;19916;-40
2023/11/11 07:41:49;;;;;;;;;;;;;;;7.68;100.00;100275.06;5051571;28;19963;-40
2023/11/11 07:44:14;;;;;;;;;;;;;;;7.96;100.00;100265.69;5051471;28;19916;-39
2023/11/11 07:46:40;;;;;;;;;;;;;;;8.31;100.00;100265.03;5051472;28;19920;-37
2023/11/11 07:49:06;;;;;;;;;;;;;;;8.85;100.00;100276.66;5054047;28;20361;-40
2023/11/11 07:51:34;;;;;;;;;;;;;;;9.28;100.00;100263.38;5036903;28;19913;-40
2023/11/11 07:53:59;;;;;;;;;;;;;;;10.13;100.00;100270.69;5054776;28;19917;-41
2023/11/11 07:56:24;;;;;;;;;;;;;;;10.90;100.00;100264.47;5054836;28;19924;-39
2023/11/11 07:58:53;;;;;;;;;;;;;;;11.34;100.00;100260.53;5051721;28;20286;-41
2023/11/11 08:01:21;;;;;;;;;;;;;;;11.89;100.00;100265.91;5047058;28;19924;-41
2023/11/11 08:03:46;;;;;;;;;;;;;;;11.69;100.00;100260.47;5033276;28;19917;-40
2023/11/11 08:06:11;;;;;;;;;;;;;;;11.37;100.00;100270.06;5034431;28;19920;-41
2023/11/11 08:08:37;;;;;;;;;;;;;;;11.07;100.00;100259.59;5034048;28;19917;-40
2023/11/11 08:11:05;;;;;;;;;;;;;;;10.58;100.00;100268.59;5034529;28;19913;-41
2023/11/11 08:13:30;;;;;;;;;;;;;;;10.40;100.00;100281.69;5034968;28;19940;-41
2023/11/11 08:15:55;;;;;;;;;;;;;;;10.30;100.00;100288.25;5034463;28;19975;-41
2023/11/11 08:18:21;;;;;;;;;;;;;;;10.04;100.00;100282.59;5034291;28;19913;-41
2023/11/11 08:20:46;;;;;;;;;;;;;;;9.85;100.00;100287.59;5034557;28;19992;-41
2023/11/11 08:23:12;;;;;;;;;;;;;;;10.03;100.00;100294.38;5034568;28;19912;-41
2023/11/11 08:25:37;;;;;;;;;;;;;;;10.84;100.00;100294.03;5034490;28;20001;-40
2023/11/11 08:28:03;;;;;;;;;;;;;;;11.60;100.00;100294.81;5034782;28;19913;-42
2023/11/11 08:30:29;;;;;;;;;;;;;;;11.59;100.00;100289.66;5034430;28;20377;-42
2023/11/11 08:32:54;;;;;;;;;;;;;;;11.37;100.00;100291.63;5034377;28;19913;-41
2023/11/11 08:35:20;;;;;;;;;;;;;;;11.00;100.00;100293.72;5016495;28;19912;-40
2023/11/11 08:37:45;;;;;;;;;;;;;;;10.70;100.00;100299.31;5034284;28;19913;-41
2023/11/11 08:40:11;;;;;;;;;;;;;;;10.26;100.00;100296.88;5034025;28;19920;-41
2023/11/11 08:42:36;;;;;;;;;;;;;;;10.03;100.00;100288.97;5033886;28;19913;-40
2023/11/11 08:45:02;;;;;;;;;;;;;;;9.84;100.00;100291.28;5033833;28;19913;-40
2023/11/11 08:47:28;;;;;;;;;;;;;;;9.56;100.00;100298.44;5032943;28;19913;-41
2023/11/11 08:49:56;;;;;;;;;;;;;;;9.52;100.00;100310.56;5034155;28;20007;-41
2023/11/11 08:52:22;;;;;;;;;;;;;;;9.35;100.00;100302.72;5033882;28;19913;-39
2023/11/11 08:54:48;;;;;;;;;;;;;;;9.19;100.00;100313.66;5033939;28;20307;-41
2023/11/11 08:57:13;;;;;;;;;;;;;;;8.99;100.00;100308.84;5033889;28;19913;-41
2023/11/11 08:59:38;;;;;;;;;;;;;;;8.90;100.00;100307.28;5033027;28;19920;-41
2023/11/11 09:02:04;;;;;;;;;;;;;;;8.80;100.00;100314.75;5032943;28;19917;-42
2023/11/11 09:04:29;;;;;;;;;;;;;;;8.62;100.00;100301.69;5034067;28;19921;-41
2023/11/11 09:06:54;;;;;;;;;;;;;;;8.52;100.00;100309.97;5033781;28;20329;-41
2023/11/11 09:09:20;;;;;;;;;;;;;;;8.49;100.00;100307.66;5033643;28;20352;-41
2023/11/11 09:11:45;;;;;;;;;;;;;;;8.49;100.00;100307.66;5015858;28;19923;-40
2023/11/11 09:14:10;;;;;;;;;;;;;;;8.50;100.00;100311.16;5033513;28;19913;-39
2023/11/11 09:16:37;;;;;;;;;;;;;;;8.49;100.00;100313.03;5033427;28;19921;-40
2023/11/11 09:19:05;;;;;;;;;;;;;;;8.47;100.00;100309.69;5033622;28;19917;-41
2023/11/11 09:21:33;;;;;;;;;;;;;;;8.52;100.00;100301.94;5033342;28;19917;-39
2023/11/11 09:23:59;;;;;;;;;;;;;;;8.61;100.00;100309.88;5032177;28;19913;-41
2023/11/11 09:26:24;;;;;;;;;;;;;;;8.68;100.00;100310.84;5033549;28;20370;-40
2023/11/11 09:28:50;;;;;;;;;;;;;;;8.73;100.00;100313.81;5033397;28;19920;-40
2023/11/11 09:31:16;;;;;;;;;;;;;;;8.84;100.00;100318.72;5032010;28;20426;-42
2023/11/11 09:33:42;;;;;;;;;;;;;;;8.84;100.00;100297.25;5033211;28;19956;-40
2023/11/11 09:36:07;;;;;;;;;;;;;;;9.06;100.00;100318.81;5033624;28;19948;-42
2023/11/11 09:38:32;;;;;;;;;;;;;;;9.33;100.00;100315.50;5032925;28;19967;-40
2023/11/11 09:40:58;;;;;;;;;;;;;;;9.79;100.00;100320.59;5032989;28;19924;-39
2023/11/11 09:43:23;;;;;;;;;;;;;;;10.40;100.00;100327.44;5032834;28;20362;-41
2023/11/11 09:45:48;;;;;;;;;;;;;;;10.90;100.00;100328.22;5031876;28;20000;-42
2023/11/11 09:48:14;;;;;;;;;;;;;;;11.50;100.00;100331.28;5031620;28;19913;-39
2023/11/11 09:50:39;;;;;;;;;;;;;;;12.24;100.00;100335.88;5032993;28;19913;-37
2023/11/11 09:53:05;;;;;;;;;;;;;;;12.34;100.00;100325.53;5032735;28;19920;-41
2023/11/11 09:55:30;;;;;;;;;;;;;;;12.78;100.00;100332.19;5033048;28;20167;-40
2023/11/11 09:57:56;;;;;;;;;;;;;;;12.80;100.00;100330.09;5031408;28;20007;-40
2023/11/11 10:00:22;;;;;;;;;;;;;;;12.77;100.00;100329.66;5032733;28;19928;-41
2023/11/11 10:02:47;;;;;;;;;;;;;;;12.70;100.00;100324.28;5032803;28;19920;-41
2023/11/11 10:05:13;;;;;;;;;;;;;;;12.77;100.00;100319.72;5032676;28;19920;-42
2023/11/11 10:07:38;;;;;;;;;;;;;;;12.43;100.00;100329.69;5032302;28;19913;-41
2023/11/11 10:10:04;;;;;;;;;;;;;;;11.99;100.00;100349.13;5032519;28;19963;-41
2023/11/11 10:12:29;;;;;;;;;;;;;;;11.55;100.00;100348.50;5030260;28;19913;-41
2023/11/11 10:14:55;;;;;;;;;;;;;;;10.92;100.00;100345.03;5031210;28;19920;-41
2023/11/11 10:17:20;;;;;;;;;;;;;;;10.68;100.00;100357.06;5030831;28;19927;-41
2023/11/11 10:19:46;;;;;;;;;;;;;;;10.46;100.00;100367.03;5032315;28;20431;-39
2023/11/11 10:22:11;;;;;;;;;;;;;;;10.04;100.00;100372.16;5032315;28;19913;-41
2023/11/11 10:24:36;;;;;;;;;;;;;;;9.81;100.00;100376.84;5032337;28;19919;-41
2023/11/11 10:27:03;;;;;;;;;;;;;;;9.64;100.00;100376.22;5031209;28;19945;-40
2023/11/11 10:29:32;;;;;;;;;;;;;;;9.43;100.00;100377.81;5032018;28;19929;-37
2023/11/11 10:31:58;;;;;;;;;;;;;;;9.29;100.00;100386.69;5031949;28;19967;-37
2023/11/11 10:34:23;;;;;;;;;;;;;;;9.19;100.00;100389.66;5032112;28;19912;-43
2023/11/11 10:36:48;;;;;;;;;;;;;;;9.13;100.00;100384.19;5032119;28;19917;-43
2023/11/11 10:39:14;;;;;;;;;;;;;;;9.10;100.00;100396.13;5032057;28;19913;-44
2023/11/11 10:41:40;;;;;;;;;;;;;;;8.92;100.00;100388.41;5031980;28;20368;-44
2023/11/11 10:44:07;;;;;;;;;;;;;;;8.70;100.00;100394.66;5031787;28;19913;-43
2023/11/11 10:46:32;;;;;;;;;;;;;;;8.60;100.00;100399.44;5032110;28;20355;-43
2023/11/11 10:48:57;;;;;;;;;;;;;;;8.51;100.00;100412.91;5030770;28;19991;-43
2023/11/11 10:51:23;;;;;;;;;;;;;;;8.55;100.00;100408.84;5031565;28;19913;-43
2023/11/11 10:53:48;;;;;;;;;;;;;;;8.63;100.00;100418.69;5030422;28;20023;-43
2023/11/11 10:56:13;;;;;;;;;;;;;;;8.71;100.00;100412.41;5031754;28;19944;-41
2023/11/11 10:58:39;;;;;;;;;;;;;;;8.99;100.00;100412.69;5031686;28;20395;-41
2023/11/11 11:01:04;;;;;;;;;;;;;;;9.14;100.00;100423.47;5032561;28;19909;-40
2023/11/11 11:03:29;;;;;;;;;;;;;;;9.30;100.00;100417.91;5033470;28;19924;-40
2023/11/11 11:06:17;;;;;;;;;;;;;;;9.40;100.00;100418.47;5021405;28;19970;-39
2023/11/11 11:08:42;;;;;;;;;;;;;;;9.50;100.00;100411.97;5014233;28;19924;-38
2023/11/11 11:11:20;;;;;;;;;;;;;;;9.56;100.00;100400.50;5036920;28;19908;-41
2023/11/11 11:13:45;;;;;;;;;;;;;;;9.70;100.00;100402.34;5017660;28;19924;-41
2023/11/11 11:16:17;;;;;;;;;;;;;;;9.85;100.00;100405.03;5040117;28;19917;-40
2023/11/11 11:18:43;;;;;;;;;;;;;;;10.27;100.00;100398.06;5015436;28;19929;-41
2023/11/11 11:21:08;;;;;;;;;;;;;;;10.32;100.00;100391.13;5027153;28;20058;-40
2023/11/11 11:23:40;;;;;;;;;;;;;;;10.39;100.00;100388.47;5032367;28;20019;-41
2023/11/11 11:26:06;;;;;;;;;;;;;;;10.27;100.00;100385.47;5053545;28;19944;-41
2023/11/11 11:28:31;;;;;;;;;;;;;;;10.10;100.00;100386.69;5050140;28;19982;-41
2023/11/11 11:30:58;;;;;;;;;;;;;;;9.99;100.00;100389.88;5049092;28;20658;-41
2023/11/11 11:33:25;;;;;;;;;;;;;;;9.89;100.00;100401.75;5042297;28;19913;-38
2023/11/11 11:35:52;;;;;;;;;;;;;;;9.80;100.00;100396.69;5048797;28;20329;-40
2023/11/11 11:38:27;;;;;;;;;;;;;;;9.68;100.00;100389.09;5035000;28;20319;-41
2023/11/11 11:40:55;;;;;;;;;;;;;;;9.64;100.00;100390.50;5034826;28;19960;-40
2023/11/11 11:43:25;;;;;;;;;;;;;;;9.70;100.00;100396.97;5035224;28;20007;-40
2023/11/11 11:45:51;;;;;;;;;;;;;;;9.80;100.00;100402.88;5053145;28;20320;-41
2023/11/11 11:48:16;;;;;;;;;;;;;;;9.91;100.00;100403.44;5066455;28;19924;-39
2023/11/11 11:50:41;;;;;;;;;;;;;;;10.03;100.00;100409.97;5035138;28;19952;-41
2023/11/11 11:53:07;;;;;;;;;;;;;;;9.98;100.00;100412.38;5052394;28;19983;-42
2023/11/11 11:55:36;;;;;;;;;;;;;;;10.00;100.00;100419.25;5042187;28;19943;-42
2023/11/11 11:58:03;;;;;;;;;;;;;;;9.92;100.00;100419.34;5052698;28;19921;-40
2023/11/11 12:00:29;;;;;;;;;;;;;;;9.67;100.00;100413.47;5041976;28;19921;-39
2023/11/11 12:02:54;;;;;;;;;;;;;;;9.54;100.00;100430.25;5046380;28;19946;-42
2023/11/11 12:05:19;;;;;;;;;;;;;;;9.47;100.00;100423.94;5052841;28;19920;-44
2023/11/11 12:07:48;;;;;;;;;;;;;;;9.34;100.00;100424.56;5040825;28;20363;-44
2023/11/11 12:10:13;;;;;;;;;;;;;;;9.29;100.00;100432.34;5052343;28;19920;-43
2023/11/11 12:12:39;;;;;;;;;;;;;;;9.27;100.00;100439.78;5060124;28;19916;-43
2023/11/11 12:15:11;;;;;;;;;;;;;;;9.26;100.00;100443.44;5072356;28;19923;-43
2023/11/11 12:17:39;;;;;;;;;;;;;;;9.27;100.00;100453.19;5044219;28;19978;-43
2023/11/11 12:20:07;;;;;;;;;;;;;;;9.33;100.00;100449.78;5043035;28;19927;-43
2023/11/11 12:22:32;;;;;;;;;;;;;;;9.29;100.00;100451.13;5034123;28;19963;-43
2023/11/11 12:24:58;;;;;;;;;;;;;;;9.36;100.00;100438.66;5049478;28;19974;-44
2023/11/11 12:27:23;;;;;;;;;;;;;;;9.39;100.00;100445.50;5041374;28;19923;-43
2023/11/11 12:29:49;;;;;;;;;;;;;;;9.33;100.00;100436.34;5021431;28;20387;-42